Terminal Aerodrome Forecast
Issued by NWS

Home | Current Version | Previous Version | Graphics & Text | Print | Product List | Glossary On
Versions: 1 2 3 4 5 6 7 8 9 10 11 12 13 14 15 16 17 18 19
000
FTUS43 KUNR 261500 AAA
TAFGCC
TAF AMD
KGCC 261508Z 2615/2712 01005KT 3SM -SN OVC015
     FM261800 04006KT P6SM SCT025 BKN050
     FM270300 18012KT P6SM SKC=

USA.gov is the U.S. government's official web portal to all federal, state and local government web resources and services.